createdAt,value
2023-02-11T00:01:44.204Z,23.30
2023-02-11T00:04:12.732Z,20.80
2023-02-11T00:06:39.948Z,22.80
2023-02-11T00:09:07.006Z,21.70
2023-02-11T00:11:33.805Z,21.80
2023-02-11T00:14:04.021Z,21.30
2023-02-11T00:16:31.942Z,21.70
2023-02-11T00:19:02.314Z,22.00
2023-02-11T00:21:29.386Z,21.80
2023-02-11T00:23:58.188Z,18.90
2023-02-11T00:26:27.600Z,19.60
2023-02-11T00:28:54.404Z,18.30
2023-02-11T00:31:22.940Z,19.20
2023-02-11T00:33:49.809Z,17.10
2023-02-11T00:36:19.549Z,16.80
2023-02-11T00:38:49.367Z,17.50
2023-02-11T00:41:18.375Z,16.80
2023-02-11T00:43:45.630Z,15.80
2023-02-11T00:46:12.478Z,13.70
2023-02-11T00:48:39.014Z,15.20
2023-02-11T00:51:05.658Z,15.10
2023-02-11T00:53:32.471Z,17.10
2023-02-11T00:56:00.780Z,15.50
2023-02-11T00:58:28.011Z,16.90
2023-02-11T01:00:55.310Z,14.20
2023-02-11T01:03:22.022Z,16.50
2023-02-11T01:05:48.718Z,15.70
2023-02-11T01:08:15.687Z,16.90
2023-02-11T01:10:45.025Z,14.50
2023-02-11T01:13:11.662Z,15.60
2023-02-11T01:15:38.062Z,15.90
2023-02-11T01:18:05.398Z,15.40
2023-02-11T01:20:31.649Z,16.40
2023-02-11T01:22:57.986Z,15.30
2023-02-11T01:25:24.242Z,15.40
2023-02-11T01:27:51.033Z,15.80
2023-02-11T01:30:18.485Z,16.00
2023-02-11T01:32:45.939Z,16.20
2023-02-11T01:35:12.368Z,16.20
2023-02-11T01:37:38.631Z,14.80
2023-02-11T01:40:10.637Z,14.70
2023-02-11T01:42:36.893Z,15.10
2023-02-11T01:45:55.230Z,14.20
2023-02-11T01:48:33.852Z,14.50
2023-02-11T01:51:16.622Z,15.00
2023-02-11T01:54:02.917Z,15.20
2023-02-11T01:56:49.256Z,14.80
2023-02-11T01:59:26.836Z,15.80
2023-02-11T02:01:58.484Z,13.40
2023-02-11T02:04:31.365Z,15.30
2023-02-11T02:07:08.440Z,16.90
2023-02-11T02:09:42.343Z,15.00
2023-02-11T02:12:10.101Z,16.00
2023-02-11T02:14:41.091Z,16.80
2023-02-11T02:17:17.434Z,17.70
2023-02-11T02:20:08.422Z,15.90
2023-02-11T02:22:45.179Z,16.80
2023-02-11T02:25:50.017Z,17.00
2023-02-11T02:28:27.213Z,14.40
2023-02-11T02:31:38.666Z,13.70
2023-02-11T02:34:57.875Z,15.30
2023-02-11T02:37:35.459Z,16.70
2023-02-11T02:40:09.382Z,16.00
2023-02-11T02:42:41.650Z,15.70
2023-02-11T02:45:11.024Z,15.20
2023-02-11T02:47:37.933Z,15.60
2023-02-11T02:50:08.969Z,16.60
2023-02-11T02:52:47.585Z,15.60
2023-02-11T02:55:32.966Z,16.20
2023-02-11T02:58:47.290Z,16.00
2023-02-11T03:01:33.075Z,15.60
2023-02-11T03:04:21.170Z,14.70
2023-02-11T03:07:12.400Z,15.00
2023-02-11T03:10:08.260Z,16.50
2023-02-11T03:12:37.354Z,13.80
2023-02-11T03:15:06.776Z,13.70
2023-02-11T03:17:35.947Z,14.70
2023-02-11T03:20:05.903Z,13.90
2023-02-11T03:23:00.513Z,14.70
2023-02-11T03:25:33.498Z,13.70
2023-02-11T03:28:18.475Z,14.00
2023-02-11T03:31:05.134Z,14.00
2023-02-11T03:36:15.814Z,14.20
2023-02-11T03:38:51.022Z,13.40
2023-02-11T03:41:23.141Z,13.00
2023-02-11T03:44:12.641Z,15.70
2023-02-11T03:46:41.221Z,14.20
2023-02-11T03:49:12.041Z,14.20
2023-02-11T03:51:39.773Z,13.80
2023-02-11T03:54:13.679Z,14.00
2023-02-11T03:56:51.027Z,14.70
2023-02-11T04:01:15.339Z,14.50
2023-02-11T04:05:00.503Z,16.10
2023-02-11T04:07:28.570Z,14.70
2023-02-11T04:09:56.046Z,16.00
2023-02-11T04:12:23.411Z,16.90
2023-02-11T04:14:50.843Z,16.70
2023-02-11T04:17:19.395Z,15.80
2023-02-11T04:19:48.238Z,17.00
2023-02-11T04:22:16.312Z,16.90
2023-02-11T04:24:44.519Z,16.90
2023-02-11T04:27:11.536Z,18.00
2023-02-11T04:29:40.926Z,15.50
2023-02-11T04:32:12.335Z,17.10
2023-02-11T04:34:39.895Z,19.30
2023-02-11T04:37:08.668Z,18.80
2023-02-11T04:39:36.408Z,17.60
2023-02-11T04:42:05.187Z,18.20
2023-02-11T04:44:35.343Z,18.50
2023-02-11T04:47:03.996Z,19.30
2023-02-11T04:49:32.601Z,18.00
2023-02-11T04:52:02.240Z,20.30
2023-02-11T04:54:29.664Z,20.40
2023-02-11T04:57:35.661Z,20.90
2023-02-11T05:00:05.890Z,18.20
2023-02-11T05:02:34.956Z,18.80
2023-02-11T05:05:01.825Z,20.90
2023-02-11T05:07:28.340Z,18.40
